Time;durP1;ratioP1;P1;durP2;ratioP2;P2;SDS_P1;SDS_P2;PMS_P1;PMS_P2;Temp;Humidity;BMP_temperature;BMP_pressure;BME280_temperature;BME280_humidity;BME280_pressure;Samples;Min_cycle;Max_cycle;Signal;HPM_P1;HPM_P2
2022/12/17 13:06:45;;;;;;;62.58;35.05;;;-0.40;99.90;;;;;;5013308;28;20127;-53
2022/12/17 13:09:15;;;;;;;56.17;34.08;;;-0.40;99.90;;;;;;5012895;28;20088;-53
2022/12/17 13:11:45;;;;;;;62.00;35.05;;;-0.40;99.90;;;;;;5022122;28;20053;-53
2022/12/17 13:14:22;;;;;;;62.83;35.90;;;-0.40;99.90;;;;;;5013075;28;20049;-53
2022/12/17 13:16:56;;;;;;;68.65;36.03;;;-0.40;99.90;;;;;;5014847;28;20150;-52
2022/12/17 13:19:36;;;;;;;63.83;36.30;;;-0.40;99.90;;;;;;5013356;28;20037;-53
2022/12/17 13:22:15;;;;;;;59.17;34.28;;;-0.40;99.90;;;;;;5013535;28;20045;-52
2022/12/17 13:24:52;;;;;;;68.82;37.85;;;-0.50;99.90;;;;;;5012162;28;20850;-55
2022/12/17 13:27:34;;;;;;;68.28;37.70;;;-0.50;99.90;;;;;;5014814;28;20041;-57
2022/12/17 13:30:16;;;;;;;66.22;35.88;;;-0.60;99.90;;;;;;5009342;28;20076;-53
2022/12/17 13:33:03;;;;;;;66.28;34.72;;;-0.60;99.90;;;;;;5013727;28;20051;-54
2022/12/17 13:35:42;;;;;;;64.28;35.78;;;-0.70;99.90;;;;;;5015820;28;20158;-52
2022/12/17 13:38:51;;;;;;;64.85;37.80;;;-0.70;99.90;;;;;;5011661;28;20145;-50
2022/12/17 13:41:30;;;;;;;65.65;36.78;;;-0.80;99.90;;;;;;5019255;28;20083;-60
2022/12/17 13:44:02;;;;;;;65.32;37.05;;;-0.90;99.90;;;;;;5011351;28;20090;-54
2022/12/17 13:46:42;;;;;;;62.55;35.90;;;-0.90;99.90;;;;;;5014204;28;20053;-57
2022/12/17 13:49:30;;;;;;;64.43;37.50;;;-1.00;99.90;;;;;;5013901;28;20049;-55
2022/12/17 13:52:01;;;;;;;65.57;34.75;;;-1.10;99.90;;;;;;5015680;28;20045;-54
2022/12/17 13:54:37;;;;;;;59.78;34.63;;;-1.10;99.90;;;;;;5013081;28;20107;-54
2022/12/17 13:57:15;;;;;;;58.80;35.90;;;-1.10;99.90;;;;;;5015542;28;20087;-64
2022/12/17 14:00:02;;;;;;;65.85;33.97;;;-1.10;99.90;;;;;;5017315;28;20692;-54
2022/12/17 14:02:40;;;;;;;62.42;34.78;;;-1.10;99.90;;;;;;5016724;28;20049;-54
2022/12/17 14:05:32;;;;;;;62.65;36.58;;;-1.10;99.90;;;;;;5016567;28;20443;-54
2022/12/17 14:08:01;;;;;;;73.20;36.60;;;-1.10;99.90;;;;;;5014997;28;20127;-57
2022/12/17 14:10:28;;;;;;;64.22;34.22;;;-1.10;99.90;;;;;;5024630;28;20868;-56
2022/12/17 14:13:09;;;;;;;55.95;31.75;;;-1.10;99.90;;;;;;5016325;28;20055;-54
2022/12/17 14:15:36;;;;;;;55.67;31.63;;;-1.20;99.90;;;;;;5019151;28;20048;-52
2022/12/17 14:18:03;;;;;;;53.90;30.45;;;-1.20;99.90;;;;;;5015396;28;20053;-53
2022/12/17 14:20:34;;;;;;;61.55;34.08;;;-1.20;99.90;;;;;;5015994;28;20163;-55
2022/12/17 14:23:15;;;;;;;61.47;34.47;;;-1.20;99.90;;;;;;5016631;28;20051;-54
2022/12/17 14:25:43;;;;;;;63.63;35.63;;;-1.20;99.90;;;;;;5017026;28;20051;-55
2022/12/17 14:28:31;;;;;;;62.83;34.35;;;-1.20;99.90;;;;;;5017768;28;20403;-55
2022/12/17 14:31:04;;;;;;;;;;;-1.20;99.90;;;;;;5015951;28;20122;-53
2022/12/17 14:34:06;;;;;;;55.15;30.00;;;-1.30;99.90;;;;;;5016589;28;19933;-56
2022/12/17 14:36:39;;;;;;;58.45;32.22;;;-1.30;99.90;;;;;;5017301;28;20056;-57
2022/12/17 14:39:31;;;;;;;58.28;31.50;;;-1.30;99.90;;;;;;5017912;28;20145;-55
2022/12/17 14:42:24;;;;;;;59.85;33.17;;;-1.30;99.90;;;;;;5016768;28;20287;-56
2022/12/17 14:44:57;;;;;;;49.65;28.33;;;-1.30;99.90;;;;;;5017172;28;20823;-57
2022/12/17 14:47:24;;;;;;;53.05;30.08;;;-1.30;99.90;;;;;;5015467;28;20037;-54
2022/12/17 14:50:06;;;;;;;;;;;-1.40;99.90;;;;;;5019301;28;20056;-54
2022/12/17 14:52:48;;;;;;;54.50;29.27;;;-1.40;99.90;;;;;;5017675;28;20032;-54
2022/12/17 14:55:35;;;;;;;48.17;28.27;;;-1.40;99.90;;;;;;5014686;28;20527;-54
2022/12/17 14:58:21;;;;;;;53.13;29.17;;;-1.40;99.90;;;;;;5014859;28;20061;-54
2022/12/17 15:00:54;;;;;;;51.13;28.33;;;-1.40;99.90;;;;;;5013473;28;20854;-52
2022/12/17 15:03:31;;;;;;;53.15;30.58;;;-1.50;99.90;;;;;;5017915;28;20080;-50
2022/12/17 15:06:01;;;;;;;49.10;30.05;;;-1.50;99.90;;;;;;5013095;28;20041;-52
2022/12/17 15:08:34;;;;;;;57.55;31.95;;;-1.50;99.90;;;;;;5015209;28;20045;-51
2022/12/17 15:11:02;;;;;;;55.38;30.23;;;-1.50;99.90;;;;;;5017891;28;20580;-50
2022/12/17 15:13:28;;;;;;;53.25;32.30;;;-1.50;99.90;;;;;;5016594;28;20144;-51
2022/12/17 15:15:55;;;;;;;;;;;-1.50;99.90;;;;;;5016724;28;20645;-52
2022/12/17 15:18:23;;;;;;;57.25;30.05;;;-1.60;99.90;;;;;;5016530;28;19924;-52
2022/12/17 15:20:50;;;;;;;57.45;29.95;;;-1.60;99.90;;;;;;5021394;28;20131;-52
2022/12/17 15:23:21;;;;;;;56.38;31.95;;;-1.60;99.90;;;;;;5016739;28;20052;-52
2022/12/17 15:25:49;;;;;;;58.45;31.88;;;-1.60;99.90;;;;;;5016473;28;20586;-51
2022/12/17 15:28:18;;;;;;;51.63;30.48;;;-1.60;99.90;;;;;;5023191;28;20160;-50
2022/12/17 15:30:46;;;;;;;52.58;29.08;;;-1.60;99.90;;;;;;5015633;28;20052;-53
2022/12/17 15:33:14;;;;;;;57.80;30.63;;;-1.60;99.90;;;;;;5017612;28;20509;-62
2022/12/17 15:35:42;;;;;;;57.67;32.40;;;-1.70;99.90;;;;;;5031517;28;20122;-61
2022/12/17 15:38:10;;;;;;;55.85;30.98;;;-1.60;99.90;;;;;;5015775;28;20049;-65
2022/12/17 15:40:38;;;;;;;56.10;30.98;;;-1.70;99.90;;;;;;4996529;28;20164;-63
2022/12/17 15:43:11;;;;;;;60.90;32.90;;;-1.70;99.90;;;;;;5004825;28;20695;-64
2022/12/17 15:45:48;;;;;;;56.70;31.75;;;-1.70;99.90;;;;;;4998575;28;20380;-64
2022/12/17 15:48:18;;;;;;;58.20;32.63;;;-1.70;99.90;;;;;;5017296;28;20125;-65
2022/12/17 15:50:45;;;;;;;57.35;32.25;;;-1.70;99.90;;;;;;5021298;28;20045;-63
2022/12/17 15:53:12;;;;;;;62.83;31.77;;;-1.80;99.90;;;;;;5012234;28;20132;-63
2022/12/17 15:55:40;;;;;;;54.40;29.80;;;-1.80;99.90;;;;;;5032539;28;20057;-63
2022/12/17 15:58:07;;;;;;;58.38;33.03;;;-1.80;99.90;;;;;;5014091;28;20073;-63
2022/12/17 16:00:34;;;;;;;58.45;32.45;;;-1.80;99.90;;;;;;5011702;28;20621;-64
2022/12/17 16:03:01;;;;;;;60.35;32.58;;;-1.80;99.90;;;;;;5013132;28;20107;-63
2022/12/17 16:05:28;;;;;;;58.05;29.25;;;-1.80;99.90;;;;;;5015896;28;20065;-63
2022/12/17 16:07:57;;;;;;;;;;;-1.80;99.90;;;;;;5016591;28;20297;-62
2022/12/17 16:10:24;;;;;;;56.25;30.30;;;-1.90;99.90;;;;;;5015542;28;20019;-61
2022/12/17 16:12:51;;;;;;;58.88;33.10;;;-1.90;99.90;;;;;;5013903;28;20040;-62
2022/12/17 16:15:18;;;;;;;;;;;-1.90;99.90;;;;;;5018329;28;20110;-62
2022/12/17 16:17:44;;;;;;;59.47;31.10;;;-1.90;99.90;;;;;;5014259;28;19940;-62
2022/12/17 16:20:11;;;;;;;53.92;31.20;;;-1.90;99.90;;;;;;5013671;28;20135;-62
2022/12/17 16:22:38;;;;;;;62.50;32.33;;;-1.80;99.90;;;;;;5015249;28;20041;-62
2022/12/17 16:25:05;;;;;;;58.60;34.63;;;-1.90;99.90;;;;;;5013391;28;20541;-62
2022/12/17 16:27:32;;;;;;;67.85;37.03;;;-1.90;99.90;;;;;;5015807;28;20068;-62
2022/12/17 16:29:59;;;;;;;64.80;36.13;;;-1.90;99.90;;;;;;5015341;28;20116;-63
2022/12/17 16:32:26;;;;;;;68.80;36.78;;;-1.90;99.90;;;;;;5022187;28;20919;-62
2022/12/17 16:35:00;;;;;;;62.55;34.05;;;-1.90;99.90;;;;;;5012041;28;20533;-63
2022/12/17 16:37:27;;;;;;;;;;;-1.90;99.90;;;;;;5016042;28;20124;-64
2022/12/17 16:39:53;;;;;;;63.42;35.40;;;-1.90;99.90;;;;;;5013418;28;19960;-64
2022/12/17 16:42:26;;;;;;;71.75;39.90;;;-1.80;99.90;;;;;;5016663;28;20156;-64
2022/12/17 16:44:52;;;;;;;73.43;40.67;;;-1.90;99.90;;;;;;5014060;28;20037;-62
2022/12/17 16:47:19;;;;;;;65.45;36.67;;;-1.90;99.90;;;;;;5013776;28;20029;-64
2022/12/17 16:49:49;;;;;;;70.55;40.25;;;-1.80;99.90;;;;;;5014482;28;20045;-64
2022/12/17 16:52:16;;;;;;;72.15;37.72;;;-1.90;99.90;;;;;;5014267;28;20957;-66
2022/12/17 16:54:42;;;;;;;61.85;34.13;;;-1.90;99.90;;;;;;5014975;28;21020;-64
2022/12/17 16:57:09;;;;;;;81.80;44.17;;;-1.90;99.90;;;;;;5012004;28;20674;-63
2022/12/17 16:59:36;;;;;;;69.72;37.28;;;-1.90;99.90;;;;;;5014745;28;20053;-64
2022/12/17 17:02:03;;;;;;;68.68;37.58;;;-1.90;99.90;;;;;;5010210;28;20099;-62
2022/12/17 17:04:30;;;;;;;76.47;41.13;;;-1.90;99.90;;;;;;5013920;28;20045;-63
2022/12/17 17:06:56;;;;;;;77.70;41.78;;;-1.90;99.90;;;;;;5013270;28;20123;-63
2022/12/17 17:09:24;;;;;;;;;;;-1.90;99.90;;;;;;5015002;28;20102;-63
2022/12/17 17:11:54;;;;;;;79.05;40.97;;;-1.90;99.90;;;;;;5015719;28;20479;-62
2022/12/17 17:14:21;;;;;;;85.32;41.55;;;-1.90;99.90;;;;;;5014196;28;20045;-64
2022/12/17 17:16:48;;;;;;;79.10;43.00;;;-1.90;99.90;;;;;;5014748;28;20115;-63
2022/12/17 17:19:15;;;;;;;82.07;43.25;;;-1.90;99.90;;;;;;5031893;28;20671;-64
2022/12/17 17:21:49;;;;;;;83.00;41.83;;;-1.90;99.90;;;;;;5014610;28;20515;-62
2022/12/17 17:24:18;;;;;;;81.03;43.63;;;-2.00;99.90;;;;;;5014786;28;20050;-63
2022/12/17 17:26:49;;;;;;;78.13;42.97;;;-1.90;99.90;;;;;;5014412;28;20139;-63
2022/12/17 17:29:16;;;;;;;80.97;42.92;;;-1.90;99.90;;;;;;5012623;28;20055;-63
2022/12/17 17:31:43;;;;;;;75.22;41.13;;;-1.90;99.90;;;;;;5021527;28;20824;-63
2022/12/17 17:34:29;;;;;;;84.55;46.28;;;-1.90;99.90;;;;;;5024600;28;20056;-62
2022/12/17 17:36:56;;;;;;;81.68;42.90;;;-1.90;99.90;;;;;;5017336;28;20056;-64
2022/12/17 17:39:23;;;;;;;82.68;42.13;;;-1.80;99.90;;;;;;5018144;28;20131;-62
2022/12/17 17:41:50;;;;;;;73.05;39.00;;;-1.90;99.90;;;;;;5018299;28;20045;-63
2022/12/17 17:44:17;;;;;;;74.35;38.13;;;-1.90;99.90;;;;;;5017870;28;20032;-63
2022/12/17 17:46:44;;;;;;;84.25;44.60;;;-1.80;99.90;;;;;;5016762;28;20104;-63
2022/12/17 17:49:11;;;;;;;90.50;44.90;;;-1.80;99.90;;;;;;5015184;28;20052;-63
2022/12/17 17:51:41;;;;;;;77.47;40.83;;;-1.80;99.90;;;;;;5015844;28;20633;-63
2022/12/17 17:54:28;;;;;;;78.47;40.53;;;-1.80;99.90;;;;;;5016750;28;20049;-64
2022/12/17 17:56:54;;;;;;;77.40;42.47;;;-1.80;99.90;;;;;;5016285;28;20678;-63
2022/12/17 17:59:22;;;;;;;81.20;42.33;;;-1.80;99.90;;;;;;5016954;28;20103;-62
2022/12/17 18:01:59;;;;;;;87.55;46.08;;;-1.80;99.90;;;;;;5030643;28;20041;-62
2022/12/17 18:04:27;;;;;;;82.88;42.50;;;-1.80;99.90;;;;;;5013553;28;20049;-63
2022/12/17 18:06:53;;;;;;;78.75;42.65;;;-1.80;99.90;;;;;;5016777;28;20072;-63
2022/12/17 18:09:40;;;;;;;85.43;43.20;;;-1.80;99.90;;;;;;5015640;28;20099;-62
2022/12/17 18:14:53;;;;;;;83.60;44.40;;;-1.80;99.90;;;;;;5015706;28;20053;-63
2022/12/17 18:17:41;;;;;;;85.50;44.00;;;-1.80;99.90;;;;;;5018229;28;20042;-65
2022/12/17 18:20:08;;;;;;;84.85;44.67;;;-1.80;99.90;;;;;;5030407;28;20136;-63
2022/12/17 18:22:36;;;;;;;81.68;42.55;;;-1.80;99.90;;;;;;5033958;28;20049;-65
2022/12/17 18:25:03;;;;;;;70.45;39.47;;;-1.80;99.90;;;;;;5016872;28;20367;-64
2022/12/17 18:27:30;;;;;;;77.40;40.80;;;-1.80;99.90;;;;;;5017448;28;20090;-64
2022/12/17 18:29:57;;;;;;;79.95;41.60;;;-1.80;99.90;;;;;;5033102;28;20111;-65
2022/12/17 18:32:24;;;;;;;78.82;41.97;;;-1.80;99.90;;;;;;5013822;28;20044;-65
2022/12/17 18:34:50;;;;;;;78.30;40.70;;;-1.80;99.90;;;;;;5014301;28;20478;-65
2022/12/17 18:37:17;;;;;;;85.97;42.92;;;-1.80;99.90;;;;;;5014941;28;20049;-64
2022/12/17 18:39:44;;;;;;;80.82;41.50;;;-1.70;99.90;;;;;;5034564;28;20045;-64
2022/12/17 18:45:16;;;;;;;71.07;35.63;;;-1.80;99.90;;;;;;5012195;28;20766;-66
2022/12/17 18:47:43;;;;;;;84.85;41.13;;;-1.80;99.90;;;;;;5017541;28;20064;-70
2022/12/17 18:50:11;;;;;;;74.05;37.97;;;-1.80;99.90;;;;;;5013487;28;20130;-64
2022/12/17 18:52:38;;;;;;;65.53;34.03;;;-1.80;99.90;;;;;;5014451;28;20434;-63
2022/12/17 18:55:05;;;;;;;72.82;38.15;;;-1.80;99.90;;;;;;5016656;28;20042;-63
2022/12/17 18:57:32;;;;;;;68.18;38.00;;;-1.70;99.90;;;;;;5022945;28;20601;-62
2022/12/17 18:59:59;;;;;;;74.88;39.47;;;-1.80;99.90;;;;;;5016330;28;20091;-62
2022/12/17 19:02:25;;;;;;;;;;;-1.70;99.90;;;;;;5017579;28;20619;-63
2022/12/17 19:04:52;;;;;;;77.63;39.80;;;-1.70;99.90;;;;;;5020264;28;19936;-63
2022/12/17 19:07:19;;;;;;;;;;;-1.70;99.90;;;;;;5017816;28;20042;-63
2022/12/17 19:09:46;;;;;;;81.90;38.92;;;-1.70;99.90;;;;;;5017081;28;19932;-63
2022/12/17 19:12:12;;;;;;;78.45;39.38;;;-1.70;99.90;;;;;;5016401;28;20139;-65
2022/12/17 19:14:39;;;;;;;;;;;-1.80;99.90;;;;;;5020181;28;20048;-65
2022/12/17 19:17:06;;;;;;;72.70;36.25;;;-1.70;99.90;;;;;;5016086;28;20015;-65
2022/12/17 19:19:33;;;;;;;79.65;40.05;;;-1.80;99.90;;;;;;5013848;28;20045;-64
2022/12/17 19:22:00;;;;;;;70.47;36.38;;;-1.80;99.90;;;;;;5013427;28;20056;-65
2022/12/17 19:24:27;;;;;;;77.38;39.70;;;-1.80;99.90;;;;;;5014352;28;20288;-65
2022/12/17 19:26:54;;;;;;;69.65;37.03;;;-1.80;99.90;;;;;;5019702;28;20041;-64
2022/12/17 19:29:21;;;;;;;82.22;42.80;;;-1.80;99.90;;;;;;5016142;28;20276;-64
2022/12/17 19:31:48;;;;;;;89.28;44.42;;;-1.70;99.90;;;;;;5014757;28;20041;-64
2022/12/17 19:34:17;;;;;;;82.25;42.25;;;-1.80;99.90;;;;;;5017884;28;20049;-64
2022/12/17 19:36:45;;;;;;;84.85;41.53;;;-1.80;99.90;;;;;;5016959;28;20037;-64
2022/12/17 19:39:14;;;;;;;83.55;42.50;;;-1.80;99.90;;;;;;5017541;28;20400;-65
2022/12/17 19:41:41;;;;;;;79.90;39.45;;;-1.80;99.90;;;;;;5016650;28;21009;-64
2022/12/17 19:44:11;;;;;;;87.30;43.35;;;-1.80;99.90;;;;;;5016238;28;20579;-64
2022/12/17 19:46:38;;;;;;;86.95;42.03;;;-1.80;99.90;;;;;;5019487;28;20283;-66
2022/12/17 19:49:07;;;;;;;91.70;44.65;;;-1.80;99.90;;;;;;5015312;28;20037;-64
2022/12/17 19:51:37;;;;;;;77.40;39.17;;;-1.80;99.90;;;;;;5015663;28;20148;-65
2022/12/17 19:54:04;;;;;;;82.03;40.38;;;-1.80;99.90;;;;;;5017637;28;20120;-63
2022/12/17 19:56:35;;;;;;;82.55;41.47;;;-1.90;99.90;;;;;;5019275;28;20049;-64
2022/12/17 19:59:05;;;;;;;83.43;40.78;;;-1.90;99.90;;;;;;5015461;28;20053;-64
2022/12/17 20:01:35;;;;;;;88.07;42.85;;;-1.90;99.90;;;;;;5015473;28;20052;-64
2022/12/17 20:04:03;;;;;;;83.50;40.28;;;-1.90;99.90;;;;;;5013190;28;20045;-65
2022/12/17 20:06:33;;;;;;;87.95;43.40;;;-1.90;99.90;;;;;;5017528;28;20144;-64
2022/12/17 20:09:02;;;;;;;83.10;42.88;;;-1.90;99.90;;;;;;5016149;28;20067;-65
2022/12/17 20:11:32;;;;;;;87.15;42.40;;;-1.90;99.90;;;;;;5015910;28;20045;-64
2022/12/17 20:14:11;;;;;;;73.70;37.35;;;-1.90;99.90;;;;;;5013841;28;20052;-64
2022/12/17 20:16:44;;;;;;;73.53;35.63;;;-1.90;99.90;;;;;;5030277;28;20051;-64
2022/12/17 20:19:16;;;;;;;92.38;44.38;;;-1.90;99.90;;;;;;5016327;28;20061;-64
2022/12/17 20:21:43;;;;;;;95.70;45.13;;;-2.00;99.90;;;;;;5016102;28;20049;-64
2022/12/17 20:24:11;;;;;;;;;;;-2.00;99.90;;;;;;5015520;28;20049;-64
2022/12/17 20:26:38;;;;;;;92.22;44.83;;;-1.90;99.90;;;;;;5016004;28;20505;-67
2022/12/17 20:29:05;;;;;;;92.50;46.30;;;-2.00;99.90;;;;;;5012938;28;20721;-65
2022/12/17 20:31:32;;;;;;;95.35;46.83;;;-2.00;99.90;;;;;;5017674;28;20040;-64
2022/12/17 20:34:02;;;;;;;97.55;50.80;;;-2.00;99.90;;;;;;5013684;28;20180;-64
2022/12/17 20:36:29;;;;;;;89.95;45.92;;;-2.00;99.90;;;;;;5015227;28;20591;-65
2022/12/17 20:38:56;;;;;;;93.68;47.05;;;-2.00;99.90;;;;;;5017392;28;20053;-64
2022/12/17 20:41:25;;;;;;;96.63;47.58;;;-2.00;99.90;;;;;;5015321;28;20049;-64
2022/12/17 20:43:53;;;;;;;98.25;46.35;;;-2.00;99.90;;;;;;5015486;28;20099;-64
2022/12/17 20:46:22;;;;;;;91.82;43.50;;;-2.00;99.90;;;;;;5013978;28;20045;-63
2022/12/17 20:48:50;;;;;;;97.53;47.30;;;-2.00;99.90;;;;;;5021962;28;20403;-64
2022/12/17 20:51:20;;;;;;;89.55;44.80;;;-2.00;99.90;;;;;;5016761;28;20037;-63
2022/12/17 20:53:46;;;;;;;95.35;45.92;;;-2.00;99.90;;;;;;5016624;28;20055;-64
2022/12/17 20:56:16;;;;;;;85.47;42.85;;;-2.10;99.90;;;;;;5018766;28;20055;-63
2022/12/17 20:58:43;;;;;;;92.22;42.80;;;-2.10;99.90;;;;;;5015124;28;20119;-66
2022/12/17 21:01:13;;;;;;;83.63;40.25;;;-2.00;99.90;;;;;;5013896;28;20071;-65
2022/12/17 21:03:41;;;;;;;99.82;49.08;;;-2.10;99.90;;;;;;5030702;28;20038;-66
2022/12/17 21:06:21;;;;;;;93.47;45.92;;;-2.00;99.90;;;;;;5012997;28;20788;-66
2022/12/17 21:08:50;;;;;;;94.68;45.95;;;-2.10;99.90;;;;;;5019115;28;20052;-66
2022/12/17 21:11:20;;;;;;;94.70;47.00;;;-2.00;99.90;;;;;;5019893;28;20548;-63
2022/12/17 21:13:47;;;;;;;98.93;47.85;;;-2.10;99.90;;;;;;5022042;28;20659;-63
2022/12/17 21:16:23;;;;;;;100.85;48.13;;;-2.10;99.90;;;;;;5018992;28;20045;-63
2022/12/17 21:18:53;;;;;;;100.55;47.33;;;-2.10;99.90;;;;;;5018923;28;20052;-68
2022/12/17 21:21:23;;;;;;;106.20;51.53;;;-2.10;99.90;;;;;;5023055;28;20049;-64
2022/12/17 21:23:50;;;;;;;115.05;52.45;;;-2.10;99.90;;;;;;5022575;28;20056;-64
2022/12/17 21:26:23;;;;;;;111.68;51.08;;;-2.10;99.90;;;;;;5021591;28;20056;-66
2022/12/17 21:28:55;;;;;;;104.53;50.03;;;-2.20;99.90;;;;;;5023448;28;20049;-65
2022/12/17 21:31:34;;;;;;;106.32;48.60;;;-2.20;99.90;;;;;;5022142;28;20131;-64
2022/12/17 21:34:03;;;;;;;124.70;53.88;;;-2.20;99.90;;;;;;5030525;28;20136;-66
2022/12/17 21:36:32;;;;;;;124.65;53.35;;;-2.20;99.90;;;;;;5023553;28;20132;-64
2022/12/17 21:39:00;;;;;;;125.97;54.35;;;-2.30;99.90;;;;;;5023695;28;20049;-65
2022/12/17 21:41:36;;;;;;;113.35;50.03;;;-2.30;99.90;;;;;;5019776;28;20284;-64
2022/12/17 21:44:06;;;;;;;117.15;51.85;;;-2.30;99.90;;;;;;5017013;28;20046;-65
2022/12/17 21:46:33;;;;;;;116.05;51.47;;;-2.30;99.90;;;;;;5018856;28;20134;-64
2022/12/17 21:49:02;;;;;;;109.65;50.90;;;-2.40;99.90;;;;;;5018296;28;20041;-66
2022/12/17 21:51:30;;;;;;;111.25;49.67;;;-2.30;99.90;;;;;;5019417;28;20838;-63
2022/12/17 21:53:59;;;;;;;117.22;49.85;;;-2.30;99.90;;;;;;5026125;28;20988;-64
2022/12/17 21:56:27;;;;;;;127.50;50.65;;;-2.40;99.90;;;;;;5015847;28;20130;-66
2022/12/17 21:58:57;;;;;;;113.20;49.50;;;-2.40;99.90;;;;;;5015536;28;20046;-66
2022/12/17 22:01:26;;;;;;;107.38;45.75;;;-2.40;99.90;;;;;;5017056;28;20053;-63
2022/12/17 22:03:56;;;;;;;120.38;49.83;;;-2.40;99.90;;;;;;5017032;28;20443;-64
2022/12/17 22:06:25;;;;;;;110.15;49.42;;;-2.40;99.90;;;;;;5017075;28;20053;-64
2022/12/17 22:08:59;;;;;;;114.82;50.22;;;-2.40;99.90;;;;;;5015446;28;20144;-64
2022/12/17 22:11:35;;;;;;;115.93;48.78;;;-2.40;99.90;;;;;;5021034;28;20048;-64
2022/12/17 22:14:05;;;;;;;103.65;47.03;;;-2.40;99.90;;;;;;5018546;28;20049;-65
2022/12/17 22:16:45;;;;;;;118.60;51.15;;;-2.40;99.90;;;;;;5019631;28;20144;-63
2022/12/17 22:19:15;;;;;;;116.20;48.63;;;-2.40;99.90;;;;;;5018145;28;20053;-67
2022/12/17 22:21:43;;;;;;;117.65;50.42;;;-2.40;99.90;;;;;;5017246;28;20064;-63
2022/12/17 22:24:16;;;;;;;113.43;49.83;;;-2.40;99.90;;;;;;5016784;28;20587;-64
2022/12/17 22:26:44;;;;;;;105.65;45.30;;;-2.40;99.90;;;;;;5024742;28;20041;-65
2022/12/17 22:29:11;;;;;;;130.52;54.33;;;-2.50;99.90;;;;;;5033215;28;20699;-66
2022/12/17 22:34:24;;;;;;;121.07;49.50;;;-2.50;99.90;;;;;;5013774;28;20045;-64
2022/12/17 22:37:10;;;;;;;140.43;56.30;;;-2.50;99.90;;;;;;5018359;28;20041;-63
2022/12/17 22:39:57;;;;;;;125.93;51.80;;;-2.40;99.90;;;;;;5018174;28;20681;-64
2022/12/17 22:45:49;;;;;;;130.80;51.72;;;-2.50;99.90;;;;;;5020028;28;20045;-64
2022/12/17 22:48:16;;;;;;;132.18;54.28;;;-2.50;99.90;;;;;;5021095;28;20046;-64
2022/12/17 22:50:43;;;;;;;120.55;50.30;;;-2.50;99.90;;;;;;5018056;28;20096;-64
2022/12/17 22:53:30;;;;;;;116.93;50.72;;;-2.50;99.90;;;;;;5019256;28;20692;-64
2022/12/17 22:56:03;;;;;;;129.20;53.67;;;-2.50;99.90;;;;;;5019735;28;20103;-64
2022/12/17 22:58:50;;;;;;;126.05;51.53;;;-2.50;99.90;;;;;;5016952;28;20060;-64
2022/12/17 23:01:17;;;;;;;129.70;54.17;;;-2.50;99.90;;;;;;5018063;28;20045;-67
2022/12/17 23:03:52;;;;;;;119.85;49.72;;;-2.50;99.90;;;;;;5015455;28;20049;-64
2022/12/17 23:06:19;;;;;;;129.57;53.38;;;-2.50;99.90;;;;;;5015338;28;20037;-64
2022/12/17 23:08:46;;;;;;;127.68;52.08;;;-2.50;99.90;;;;;;5013708;28;20033;-66
2022/12/17 23:11:24;;;;;;;122.50;49.90;;;-2.50;99.90;;;;;;5017789;28;20041;-65
2022/12/17 23:13:52;;;;;;;133.07;52.78;;;-2.60;99.90;;;;;;5017069;28;20049;-66
2022/12/17 23:16:19;;;;;;;125.63;52.47;;;-2.60;99.90;;;;;;5020640;28;20038;-66
2022/12/17 23:18:48;;;;;;;132.02;55.10;;;-2.60;99.90;;;;;;5017266;28;20091;-66
2022/12/17 23:21:23;;;;;;;128.10;53.38;;;-2.60;99.90;;;;;;5017222;28;20515;-65
2022/12/17 23:23:54;;;;;;;127.63;52.55;;;-2.60;99.90;;;;;;5015271;28;20051;-66
2022/12/17 23:26:30;;;;;;;126.97;53.55;;;-2.60;99.90;;;;;;5019008;28;20618;-64
2022/12/17 23:29:02;;;;;;;133.90;56.83;;;-2.60;99.90;;;;;;5016375;28;20863;-63
2022/12/17 23:31:32;;;;;;;110.88;47.58;;;-2.70;99.90;;;;;;5016821;28;20758;-64
2022/12/17 23:33:59;;;;;;;139.30;56.80;;;-2.70;99.90;;;;;;5016307;28;20041;-66
2022/12/17 23:36:26;;;;;;;;;;;-2.70;99.90;;;;;;5014199;28;20045;-63
2022/12/17 23:38:55;;;;;;;115.83;47.10;;;-2.70;99.90;;;;;;5018062;28;19933;-65
2022/12/17 23:41:25;;;;;;;133.02;51.72;;;-2.80;99.90;;;;;;5016939;28;20069;-65
2022/12/17 23:43:53;;;;;;;134.20;52.67;;;-2.80;99.90;;;;;;5016600;28;20159;-65
2022/12/17 23:46:21;;;;;;;134.48;52.67;;;-2.80;99.90;;;;;;5016075;28;20045;-63
2022/12/17 23:48:49;;;;;;;133.82;53.88;;;-2.80;99.90;;;;;;5013723;28;20474;-66
2022/12/17 23:51:18;;;;;;;129.13;52.58;;;-2.80;99.90;;;;;;5016552;28;20052;-64
2022/12/17 23:53:46;;;;;;;139.45;54.97;;;-2.80;99.90;;;;;;5016866;28;20686;-64
2022/12/17 23:56:14;;;;;;;120.63;47.63;;;-2.80;99.90;;;;;;5015474;28;20091;-66
2022/12/17 23:58:42;;;;;;;127.15;47.67;;;-2.80;99.90;;;;;;5015226;28;20131;-66
